KJST/JST METAR and TAF weather

Enter ICAO airport designator
Station Type Date Time Source
KJST METAR 2019/10/23 13:54 UTC NOAA

KJST 231354Z AUTO 26010G18KT 10SM CLR 08/03 A3000 RMK AO2 SLP164 T00830028


Station Type Date Time Source
KJST Decoded METAR 2019/10/23 13:54 UTC NOAA

JOHNSTOWN-CAMBRIA CO AIRPORT , PA, United States (KJST) 40-19N 078-50W 694M
Oct 23, 2019 - 09:54 AM EDT / 2019.10.23 1354 UTC
Wind: from the W (260 degrees) at 12 MPH (10 KT) gusting to 21 MPH (18 KT):0
Visibility: 10 mile(s):0
Sky conditions: clear
Temperature: 46.9 F (8.3 C)
Dew Point: 37.0 F (2.8 C)
Relative Humidity: 68%
Pressure (altimeter): 30 in. Hg (1015 hPa)
ob: KJST 231354Z AUTO 26010G18KT 10SM CLR 08/03 A3000 RMK AO2 SLP164 T00830028
cycle: 14

Station Type Date Time Source
KJST TAF 2019/10/23 12:22 UTC NOAA

TAF KJST 231120Z 2312/2412 27009KT P6SM SKC
FM231300 26012G24KT P6SM SKC
FM232300 24006KT P6SM SKC

Example: see airport list